createdAt,value
2019-03-01T00:02:40.121Z,43.94
2019-03-01T00:05:47.119Z,44.16
2019-03-01T00:08:55.475Z,44.43
2019-03-01T00:12:02.469Z,44.33
2019-03-01T00:15:10.890Z,44.42
2019-03-01T00:18:17.899Z,44.47
2019-03-01T00:21:24.913Z,44.75
2019-03-01T00:24:33.284Z,45.41
2019-03-01T00:27:40.409Z,45.88
2019-03-01T00:30:48.789Z,46.12
2019-03-01T00:33:56.127Z,46.17
2019-03-01T00:37:04.443Z,46.45
2019-03-01T00:40:12.862Z,46.66
2019-03-01T00:43:19.859Z,46.82
2019-03-01T00:45:48.287Z,46.90
2019-03-01T00:48:16.681Z,46.74
2019-03-01T00:50:45.081Z,46.78
2019-03-01T00:53:13.541Z,46.73
2019-03-01T00:55:41.945Z,46.70
2019-03-01T00:58:10.348Z,46.67
2019-03-01T01:03:32.525Z,46.50
2019-03-01T01:08:35.203Z,46.33
2019-03-01T01:11:03.633Z,46.27
2019-03-01T01:13:32.034Z,46.27
2019-03-01T01:16:00.433Z,46.24
2019-03-01T01:18:28.866Z,46.21
2019-03-01T01:20:57.260Z,46.26
2019-03-01T01:23:25.666Z,46.28
2019-03-01T01:28:28.069Z,46.24
2019-03-01T01:30:56.508Z,46.24
2019-03-01T01:33:24.908Z,46.22
2019-03-01T01:35:53.297Z,46.31
2019-03-01T01:38:21.711Z,46.32
2019-03-01T01:40:50.106Z,46.41
2019-03-01T01:43:18.504Z,46.51
2019-03-01T01:45:46.931Z,46.64
2019-03-01T01:48:15.336Z,46.79
2019-03-01T01:50:43.743Z,46.89
2019-03-01T01:55:45.645Z,47.11
2019-03-01T01:58:14.047Z,47.16
2019-03-01T02:00:42.516Z,47.23
2019-03-01T02:03:10.915Z,47.25
2019-03-01T02:05:39.381Z,47.27
2019-03-01T02:08:07.837Z,47.30
2019-03-01T02:10:55.431Z,47.33
2019-03-01T02:13:23.847Z,47.29
2019-03-01T02:15:52.245Z,47.36
2019-03-01T02:18:20.656Z,47.38
2019-03-01T02:23:23.353Z,47.52
2019-03-01T02:25:51.777Z,47.38
2019-03-01T02:28:20.180Z,47.46
2019-03-01T02:33:43.057Z,47.38
2019-03-01T02:36:11.496Z,47.33
2019-03-01T02:38:39.897Z,47.32
2019-03-01T02:41:08.289Z,47.34
2019-03-01T02:43:36.722Z,47.41
2019-03-01T02:46:05.140Z,47.38
2019-03-01T02:48:33.524Z,47.30
2019-03-01T02:51:01.963Z,47.24
2019-03-01T02:53:30.361Z,47.31
2019-03-01T02:55:58.767Z,47.27
2019-03-01T03:01:20.135Z,47.21
2019-03-01T03:08:58.281Z,47.33
2019-03-01T03:11:26.697Z,47.31
2019-03-01T03:13:55.101Z,47.33
2019-03-01T03:16:23.533Z,47.39
2019-03-01T03:18:51.984Z,47.41
2019-03-01T03:21:20.377Z,47.39
2019-03-01T03:23:48.838Z,47.40
2019-03-01T03:29:04.689Z,47.35
2019-03-01T03:31:33.116Z,47.38
2019-03-01T03:34:01.511Z,47.51
2019-03-01T03:36:29.923Z,47.60
2019-03-01T03:38:58.325Z,47.57
2019-03-01T03:41:26.790Z,47.53
2019-03-01T03:43:55.206Z,47.60
2019-03-01T03:46:23.618Z,47.71
2019-03-01T03:48:52.010Z,47.78
2019-03-01T03:51:20.448Z,47.85
2019-03-01T03:53:48.858Z,47.92
2019-03-01T03:56:17.344Z,47.91
2019-03-01T04:01:58.263Z,47.98
2019-03-01T04:07:00.147Z,47.85
2019-03-01T04:09:47.917Z,47.94
2019-03-01T04:12:16.315Z,47.91
2019-03-01T04:14:44.717Z,47.86
2019-03-01T04:17:32.433Z,47.76
2019-03-01T04:20:00.845Z,47.91
2019-03-01T04:22:41.519Z,47.96
2019-03-01T04:25:29.266Z,47.95
2019-03-01T04:27:57.703Z,47.97
2019-03-01T04:30:26.104Z,48.05
2019-03-01T04:32:54.501Z,48.12
2019-03-01T04:35:22.922Z,48.12
2019-03-01T04:37:51.324Z,48.04
2019-03-01T04:40:19.722Z,48.17
2019-03-01T04:42:48.150Z,48.29
2019-03-01T04:45:56.468Z,48.34
2019-03-01T04:48:24.895Z,48.37
2019-03-01T04:50:53.291Z,48.47
2019-03-01T04:53:40.912Z,48.61
2019-03-01T04:56:09.305Z,49.14
2019-03-01T04:58:37.752Z,49.63
2019-03-01T05:03:42.900Z,50.49
2019-03-01T05:06:11.317Z,50.77
2019-03-01T05:08:39.721Z,50.77
2019-03-01T05:11:08.210Z,50.82
2019-03-01T05:16:10.586Z,50.78
2019-03-01T05:18:39.087Z,50.71
2019-03-01T05:21:07.485Z,50.69
2019-03-01T05:26:50.172Z,50.64
2019-03-01T05:29:18.561Z,50.54
2019-03-01T05:31:46.960Z,50.43
2019-03-01T05:34:15.405Z,50.42
2019-03-01T05:36:43.806Z,50.32
2019-03-01T05:39:12.213Z,50.36
2019-03-01T05:41:40.686Z,50.42
2019-03-01T05:44:09.087Z,50.24
2019-03-01T05:46:37.485Z,50.02
2019-03-01T05:49:25.239Z,50.12
2019-03-01T05:51:53.639Z,50.03
2019-03-01T05:54:22.037Z,49.86
2019-03-01T05:56:50.471Z,49.74
2019-03-01T05:59:58.775Z,49.59
2019-03-01T06:03:07.200Z,49.54
2019-03-01T06:05:35.604Z,49.43
2019-03-01T06:08:42.824Z,49.54
2019-03-01T06:11:51.122Z,49.73
2019-03-01T06:14:59.521Z,50.02
2019-03-01T06:18:06.515Z,50.28
2019-03-01T06:21:15.014Z,50.62
2019-03-01T06:24:23.395Z,51.02
2019-03-01T06:27:04.073Z,51.36
2019-03-01T06:30:12.388Z,52.00
2019-03-01T06:33:21.126Z,52.70
2019-03-01T06:36:29.445Z,53.41
2019-03-01T06:39:37.997Z,54.12
2019-03-01T06:42:45.001Z,54.67
2019-03-01T06:45:52.146Z,55.30
2019-03-01T06:51:29.336Z,56.12
2019-03-01T06:53:57.817Z,56.21
2019-03-01T06:56:26.205Z,56.64
2019-03-01T06:59:34.888Z,56.86
2019-03-01T07:07:25.866Z,57.42
2019-03-01T07:09:54.263Z,57.51
2019-03-01T07:14:56.281Z,58.02
2019-03-01T07:17:24.704Z,58.46
2019-03-01T07:19:53.094Z,58.71
2019-03-01T07:22:21.491Z,58.77
2019-03-01T07:27:23.579Z,58.92
2019-03-01T07:30:04.375Z,59.06
2019-03-01T07:32:32.772Z,59.34
2019-03-01T07:35:01.155Z,59.24
2019-03-01T07:37:29.589Z,59.34
2019-03-01T07:39:57.991Z,59.46
2019-03-01T07:42:26.385Z,59.29
2019-03-01T07:47:28.275Z,58.96
2019-03-01T07:49:57.056Z,59.34
2019-03-01T07:55:00.655Z,59.37
2019-03-01T08:02:57.543Z,60.24
2019-03-01T08:05:25.959Z,60.15
2019-03-01T08:07:56.261Z,60.39
2019-03-01T08:12:58.797Z,60.57
2019-03-01T08:18:20.829Z,60.81
2019-03-01T08:20:49.262Z,61.06
2019-03-01T08:23:17.649Z,61.21
2019-03-01T08:25:46.049Z,61.36
2019-03-01T08:28:14.469Z,61.51
2019-03-01T08:30:45.695Z,61.67
2019-03-01T08:33:24.944Z,61.60
2019-03-01T08:36:12.531Z,61.81
2019-03-01T08:41:14.605Z,62.10
2019-03-01T08:43:44.726Z,62.09
2019-03-01T08:46:13.176Z,62.11
2019-03-01T08:48:41.585Z,62.57
2019-03-01T08:51:09.969Z,62.94
2019-03-01T08:53:38.395Z,62.90
2019-03-01T08:56:06.785Z,62.88
2019-03-01T08:58:37.729Z,63.55
2019-03-01T09:01:25.564Z,63.79
2019-03-01T09:04:37.740Z,63.63
2019-03-01T09:07:23.240Z,63.73
2019-03-01T09:09:53.758Z,63.94
2019-03-01T09:12:21.761Z,63.75
2019-03-01T09:17:23.777Z,64.59
2019-03-01T09:19:52.158Z,64.68
2019-03-01T09:22:20.594Z,64.59
2019-03-01T09:24:48.986Z,64.95
2019-03-01T09:27:17.377Z,65.11
2019-03-01T09:32:20.142Z,65.70
2019-03-01T09:35:20.528Z,66.00
2019-03-01T09:40:38.090Z,66.64
2019-03-01T09:43:06.483Z,66.88
2019-03-01T09:45:54.112Z,67.02
2019-03-01T09:48:22.505Z,66.90
2019-03-01T09:50:50.927Z,66.75
2019-03-01T09:53:19.338Z,66.84
2019-03-01T09:55:47.731Z,67.00
2019-03-01T09:58:16.127Z,67.34
2019-03-01T10:01:24.486Z,67.33
2019-03-01T10:03:52.879Z,67.58
2019-03-01T10:06:21.278Z,67.42
2019-03-01T10:08:49.691Z,67.53
2019-03-01T10:11:18.083Z,67.69
2019-03-01T10:13:46.487Z,67.49
2019-03-01T10:16:14.917Z,67.49
2019-03-01T10:18:43.311Z,67.50
2019-03-01T10:21:11.710Z,67.42
2019-03-01T10:26:14.345Z,67.63
2019-03-01T10:31:16.400Z,67.75
2019-03-01T10:33:44.786Z,67.65
2019-03-01T10:36:13.364Z,67.86
2019-03-01T10:39:00.951Z,67.95
2019-03-01T10:41:29.359Z,67.75
2019-03-01T10:43:57.779Z,67.84
2019-03-01T10:46:26.158Z,68.02
2019-03-01T10:51:29.014Z,68.14
2019-03-01T10:54:16.684Z,67.95
2019-03-01T10:56:45.079Z,68.00
2019-03-01T10:59:13.471Z,68.10
2019-03-01T11:02:01.108Z,68.26
2019-03-01T11:04:48.820Z,68.34
2019-03-01T11:07:17.251Z,68.23
2019-03-01T11:09:45.642Z,68.11
2019-03-01T11:12:14.040Z,68.11
2019-03-01T11:17:16.056Z,68.18
2019-03-01T11:19:44.506Z,68.12
2019-03-01T11:22:12.904Z,68.08
2019-03-01T11:24:41.303Z,68.15
2019-03-01T11:27:12.929Z,68.05
2019-03-01T11:29:39.927Z,68.38
2019-03-01T11:32:08.329Z,68.44
2019-03-01T11:37:11.307Z,68.67
2019-03-01T11:42:13.893Z,68.33
2019-03-01T11:44:42.290Z,68.28
2019-03-01T11:47:50.672Z,68.25
2019-03-01T11:53:25.865Z,68.22
2019-03-01T11:55:54.270Z,67.78
2019-03-01T11:58:22.658Z,67.61
2019-03-01T12:00:52.209Z,67.47
2019-03-01T12:03:21.207Z,67.50
2019-03-01T12:05:49.597Z,67.41
2019-03-01T12:08:18.065Z,67.57
2019-03-01T12:11:05.702Z,67.53
2019-03-01T12:13:34.124Z,67.41
2019-03-01T12:16:02.562Z,67.49
2019-03-01T12:18:30.905Z,67.34
2019-03-01T12:20:59.400Z,67.38
2019-03-01T12:23:27.814Z,67.40
2019-03-01T12:25:56.214Z,67.62
2019-03-01T12:28:24.636Z,67.57
2019-03-01T12:30:53.040Z,67.64
2019-03-01T12:33:21.444Z,67.65
2019-03-01T12:38:35.927Z,67.51
2019-03-01T12:43:38.273Z,67.39
2019-03-01T12:46:06.703Z,67.42
2019-03-01T12:48:35.100Z,67.34
2019-03-01T12:51:03.497Z,67.20
2019-03-01T12:53:31.942Z,67.18
2019-03-01T12:56:00.340Z,67.32
2019-03-01T12:58:28.728Z,67.41
2019-03-01T13:00:57.171Z,67.35
2019-03-01T13:03:47.939Z,67.13
2019-03-01T13:06:16.359Z,67.02
2019-03-01T13:08:47.814Z,66.85
2019-03-01T13:11:16.324Z,66.89
2019-03-01T13:16:19.084Z,66.73
2019-03-01T13:21:21.429Z,66.75
2019-03-01T13:23:49.867Z,66.58
2019-03-01T13:26:18.264Z,66.62
2019-03-01T13:28:47.007Z,66.43
2019-03-01T13:33:51.079Z,66.26
2019-03-01T13:36:19.499Z,66.33
2019-03-01T13:38:47.891Z,66.24
2019-03-01T13:41:28.536Z,66.16
2019-03-01T13:43:56.960Z,66.10
2019-03-01T13:46:26.435Z,66.16
2019-03-01T13:48:55.490Z,66.22
2019-03-01T13:51:23.881Z,66.11
2019-03-01T13:53:52.309Z,65.85
2019-03-01T13:56:40.030Z,65.91
2019-03-01T13:59:08.494Z,65.67
2019-03-01T14:04:30.145Z,65.33
2019-03-01T14:06:58.537Z,65.06
2019-03-01T14:09:46.108Z,64.87
2019-03-01T14:12:22.003Z,64.82
2019-03-01T14:14:50.406Z,64.80
2019-03-01T14:19:52.828Z,64.48
2019-03-01T14:24:55.288Z,64.28
2019-03-01T14:27:26.330Z,64.05
2019-03-01T14:29:53.835Z,63.96
2019-03-01T14:32:22.209Z,63.85
2019-03-01T14:34:50.645Z,63.61
2019-03-01T14:37:19.419Z,63.33
2019-03-01T14:40:08.379Z,63.36
2019-03-01T14:42:48.751Z,63.35
2019-03-01T14:45:36.591Z,63.27
2019-03-01T14:48:24.304Z,63.13
2019-03-01T14:53:26.676Z,63.20
2019-03-01T14:56:35.882Z,63.13
2019-03-01T14:59:45.135Z,63.02
2019-03-01T15:02:52.122Z,62.93
2019-03-01T15:11:44.369Z,63.23
2019-03-01T15:14:13.667Z,63.25
2019-03-01T15:16:43.317Z,63.19
2019-03-01T15:19:12.774Z,63.17
2019-03-01T15:22:00.382Z,63.18
2019-03-01T15:24:28.780Z,63.27
2019-03-01T15:27:00.186Z,63.17
2019-03-01T15:29:28.164Z,63.12
2019-03-01T15:31:57.458Z,63.22
2019-03-01T15:34:25.850Z,63.20
2019-03-01T15:39:28.999Z,63.24
2019-03-01T15:41:57.434Z,63.20
2019-03-01T15:44:25.831Z,63.23
2019-03-01T15:46:54.672Z,63.19
2019-03-01T15:49:23.569Z,63.11
2019-03-01T15:51:53.212Z,63.18
2019-03-01T15:54:21.603Z,63.28
2019-03-01T15:56:50.037Z,63.30
2019-03-01T15:59:18.424Z,63.26
2019-03-01T16:01:47.149Z,63.21
2019-03-01T16:06:55.195Z,63.29
2019-03-01T16:09:21.803Z,63.18
2019-03-01T16:12:10.855Z,63.17
2019-03-01T16:17:13.130Z,63.24
2019-03-01T16:22:18.937Z,63.46
2019-03-01T16:24:46.102Z,63.60
2019-03-01T16:27:15.411Z,63.75
2019-03-01T16:29:44.589Z,63.79
2019-03-01T16:32:13.005Z,63.84
2019-03-01T16:34:42.387Z,63.97
2019-03-01T16:37:11.519Z,64.01
2019-03-01T16:39:39.935Z,64.15
2019-03-01T16:42:08.335Z,64.20
2019-03-01T16:44:36.726Z,64.23
2019-03-01T16:52:12.966Z,64.11
2019-03-01T16:54:41.362Z,64.11
2019-03-01T16:59:43.897Z,64.16
2019-03-01T17:02:12.322Z,64.22
2019-03-01T17:04:40.713Z,64.24
2019-03-01T17:07:09.182Z,64.25
2019-03-01T17:09:37.602Z,64.22
2019-03-01T17:12:05.999Z,64.25
2019-03-01T17:14:34.896Z,64.21
2019-03-01T17:19:38.549Z,64.24
2019-03-01T17:22:06.982Z,64.36
2019-03-01T17:24:54.579Z,64.44
2019-03-01T17:27:22.995Z,64.55
2019-03-01T17:29:51.391Z,64.68
2019-03-01T17:32:19.837Z,65.27
2019-03-01T17:34:48.518Z,65.66
2019-03-01T17:37:16.914Z,66.07
2019-03-01T17:39:45.304Z,66.66
2019-03-01T17:42:13.722Z,67.00
2019-03-01T17:44:44.599Z,67.10
2019-03-01T17:47:12.238Z,67.11
2019-03-01T17:52:14.575Z,67.20
2019-03-01T17:54:42.974Z,67.17
2019-03-01T17:57:33.105Z,67.15
2019-03-01T18:00:01.344Z,67.22
2019-03-01T18:02:29.744Z,67.17
2019-03-01T18:04:58.161Z,67.18
2019-03-01T18:07:27.226Z,67.18
2019-03-01T18:09:56.698Z,66.94
2019-03-01T18:12:25.151Z,66.75
2019-03-01T18:14:53.539Z,66.57
2019-03-01T18:17:21.938Z,66.54
2019-03-01T18:19:50.411Z,66.62
2019-03-01T18:22:18.842Z,66.80
2019-03-01T18:24:49.970Z,66.91
2019-03-01T18:29:51.698Z,67.65
2019-03-01T18:32:20.162Z,67.71
2019-03-01T18:34:48.566Z,67.83
2019-03-01T18:37:19.357Z,68.07
2019-03-01T18:42:21.584Z,68.57
2019-03-01T18:47:24.002Z,69.04
2019-03-01T18:49:55.245Z,69.32
2019-03-01T18:54:56.900Z,69.60
2019-03-01T18:59:59.927Z,69.89
2019-03-01T19:02:29.310Z,69.89
2019-03-01T19:05:00.649Z,70.02
2019-03-01T19:07:28.618Z,70.00
2019-03-01T19:10:09.814Z,70.07
2019-03-01T19:12:28.179Z,70.10
2019-03-01T19:14:56.594Z,69.96
2019-03-01T19:20:02.093Z,70.12
2019-03-01T19:22:29.391Z,70.08
2019-03-01T19:24:59.192Z,69.94
2019-03-01T19:27:50.488Z,69.88
2019-03-01T19:30:57.004Z,69.96
2019-03-01T19:33:25.506Z,69.87
2019-03-01T19:36:13.265Z,69.81
2019-03-01T19:41:15.590Z,69.86
2019-03-01T19:46:37.034Z,69.88
2019-03-01T19:51:39.420Z,70.07
2019-03-01T19:56:42.141Z,70.14
2019-03-01T20:01:44.471Z,70.09
2019-03-01T20:04:12.880Z,70.07
2019-03-01T20:06:43.532Z,70.22
2019-03-01T20:09:51.468Z,70.15
2019-03-01T20:12:19.847Z,70.11
2019-03-01T20:14:48.242Z,69.95
2019-03-01T20:17:16.691Z,69.92
2019-03-01T20:19:47.448Z,69.96
2019-03-01T20:22:55.890Z,69.86
2019-03-01T20:28:32.451Z,69.69
2019-03-01T20:31:01.594Z,69.64
2019-03-01T20:33:31.052Z,69.65
2019-03-01T20:35:59.496Z,69.67
2019-03-01T20:38:27.909Z,69.74
2019-03-01T20:40:56.306Z,69.69
2019-03-01T20:43:24.786Z,69.59
2019-03-01T20:45:53.191Z,69.65
2019-03-01T20:48:21.598Z,69.64
2019-03-01T20:50:51.053Z,69.50
2019-03-01T20:53:20.182Z,69.50
2019-03-01T20:55:48.581Z,69.45
2019-03-01T20:58:57.069Z,69.44
2019-03-01T21:01:44.801Z,69.47
2019-03-01T21:04:13.300Z,69.42
2019-03-01T21:06:41.715Z,69.37
2019-03-01T21:09:10.114Z,69.41
2019-03-01T21:11:38.544Z,69.34
2019-03-01T21:14:06.935Z,69.27
2019-03-01T21:16:35.335Z,69.14
2019-03-01T21:19:05.811Z,69.10
2019-03-01T21:21:33.878Z,69.15
2019-03-01T21:24:02.281Z,69.11
2019-03-01T21:26:30.856Z,69.05
2019-03-01T21:28:59.263Z,69.12
2019-03-01T21:31:46.929Z,69.13
2019-03-01T21:34:15.359Z,69.15
2019-03-01T21:37:03.971Z,69.14
2019-03-01T21:39:33.223Z,69.11
2019-03-01T21:42:01.624Z,69.10
2019-03-01T21:44:30.052Z,69.19
2019-03-01T21:46:58.453Z,69.12
2019-03-01T21:50:07.790Z,69.16
2019-03-01T21:52:36.993Z,69.22
2019-03-01T21:55:45.340Z,69.13
2019-03-01T21:58:13.735Z,69.14
2019-03-01T22:00:42.143Z,69.14
2019-03-01T22:03:10.573Z,69.28
2019-03-01T22:05:38.978Z,69.37
2019-03-01T22:08:09.506Z,69.40
2019-03-01T22:13:11.450Z,69.43
2019-03-01T22:18:13.890Z,69.43
2019-03-01T22:20:44.804Z,69.36
2019-03-01T22:23:15.721Z,69.34
2019-03-01T22:25:42.568Z,69.34
2019-03-01T22:28:10.988Z,69.47
2019-03-01T22:30:39.382Z,69.72
2019-03-01T22:33:07.780Z,70.00
2019-03-01T22:35:36.226Z,70.46
2019-03-01T22:38:05.538Z,70.86
2019-03-01T22:40:34.779Z,71.14
2019-03-01T22:43:03.214Z,71.36
2019-03-01T22:45:31.621Z,71.39
2019-03-01T22:48:00.006Z,71.48
2019-03-01T22:50:28.423Z,71.62
2019-03-01T22:52:56.820Z,71.76
2019-03-01T22:55:25.226Z,72.09
2019-03-01T22:57:53.627Z,72.28
2019-03-01T23:01:01.968Z,72.24
2019-03-01T23:06:04.082Z,72.18
2019-03-01T23:08:35.482Z,72.48
2019-03-01T23:14:10.743Z,72.58
2019-03-01T23:16:39.135Z,72.43
2019-03-01T23:19:27.085Z,72.41
2019-03-01T23:21:55.483Z,72.55
2019-03-01T23:24:23.887Z,72.49
2019-03-01T23:26:53.640Z,72.57
2019-03-01T23:29:22.406Z,72.55
2019-03-01T23:34:38.960Z,72.64
2019-03-01T23:37:08.417Z,72.46
2019-03-01T23:39:36.820Z,72.27
2019-03-01T23:42:05.231Z,72.17
2019-03-01T23:44:33.625Z,72.34
2019-03-01T23:47:02.864Z,72.35
2019-03-01T23:52:46.042Z,72.39
2019-03-01T23:55:15.600Z,72.25
2019-03-01T23:57:44.638Z,72.16
